sensor_id;sensor_type;location;lat;lon;timestamp;P1;durP1;ratioP1;P2;durP2;ratioP2
50585;SDS011;36542;51.700;8.846;2023-03-23T00:01:12;3.13;;;2.10;;
50585;SDS011;36542;51.700;8.846;2023-03-23T00:03:40;5.27;;;2.30;;
50585;SDS011;36542;51.700;8.846;2023-03-23T00:06:06;3.67;;;2.07;;
50585;SDS011;36542;51.700;8.846;2023-03-23T00:08:36;3.27;;;1.93;;
50585;SDS011;36542;51.700;8.846;2023-03-23T00:11:09;3.50;;;1.90;;
50585;SDS011;36542;51.700;8.846;2023-03-23T00:13:39;3.93;;;1.70;;
50585;SDS011;36542;51.700;8.846;2023-03-23T00:16:05;3.13;;;2.13;;
50585;SDS011;36542;51.700;8.846;2023-03-23T00:18:49;4.93;;;1.80;;
50585;SDS011;36542;51.700;8.846;2023-03-23T00:21:19;5.73;;;1.90;;
50585;SDS011;36542;51.700;8.846;2023-03-23T00:23:50;5.40;;;2.20;;
50585;SDS011;36542;51.700;8.846;2023-03-23T00:26:16;2.57;;;2.00;;
50585;SDS011;36542;51.700;8.846;2023-03-23T00:28:43;4.23;;;2.17;;
50585;SDS011;36542;51.700;8.846;2023-03-23T00:31:11;3.07;;;1.90;;
50585;SDS011;36542;51.700;8.846;2023-03-23T00:33:37;2.73;;;1.90;;
50585;SDS011;36542;51.700;8.846;2023-03-23T00:36:05;5.60;;;2.37;;
50585;SDS011;36542;51.700;8.846;2023-03-23T00:38:35;2.40;;;2.03;;
50585;SDS011;36542;51.700;8.846;2023-03-23T00:41:01;4.30;;;2.33;;
50585;SDS011;36542;51.700;8.846;2023-03-23T00:43:30;3.20;;;2.23;;
50585;SDS011;36542;51.700;8.846;2023-03-23T00:45:56;3.77;;;2.20;;
50585;SDS011;36542;51.700;8.846;2023-03-23T00:48:25;5.67;;;2.37;;
50585;SDS011;36542;51.700;8.846;2023-03-23T00:50:52;3.60;;;2.00;;
50585;SDS011;36542;51.700;8.846;2023-03-23T00:53:18;3.40;;;2.47;;
50585;SDS011;36542;51.700;8.846;2023-03-23T00:55:44;2.53;;;2.03;;
50585;SDS011;36542;51.700;8.846;2023-03-23T00:58:11;6.37;;;2.27;;
50585;SDS011;36542;51.700;8.846;2023-03-23T01:00:37;3.67;;;2.10;;
50585;SDS011;36542;51.700;8.846;2023-03-23T01:03:03;2.87;;;2.10;;
50585;SDS011;36542;51.700;8.846;2023-03-23T01:05:29;3.00;;;2.23;;
50585;SDS011;36542;51.700;8.846;2023-03-23T01:08:02;3.23;;;2.00;;
50585;SDS011;36542;51.700;8.846;2023-03-23T01:10:29;3.33;;;2.00;;
50585;SDS011;36542;51.700;8.846;2023-03-23T01:12:57;6.37;;;2.43;;
50585;SDS011;36542;51.700;8.846;2023-03-23T01:15:25;2.53;;;2.30;;
50585;SDS011;36542;51.700;8.846;2023-03-23T01:17:52;5.60;;;2.77;;
50585;SDS011;36542;51.700;8.846;2023-03-23T01:20:17;4.27;;;2.37;;
50585;SDS011;36542;51.700;8.846;2023-03-23T01:22:43;3.43;;;2.30;;
50585;SDS011;36542;51.700;8.846;2023-03-23T01:25:10;3.63;;;2.43;;
50585;SDS011;36542;51.700;8.846;2023-03-23T01:27:37;4.53;;;2.63;;
50585;SDS011;36542;51.700;8.846;2023-03-23T01:30:03;5.10;;;2.30;;
50585;SDS011;36542;51.700;8.846;2023-03-23T01:32:30;3.57;;;2.30;;
50585;SDS011;36542;51.700;8.846;2023-03-23T01:34:56;3.23;;;2.20;;
50585;SDS011;36542;51.700;8.846;2023-03-23T01:37:21;3.37;;;2.37;;
50585;SDS011;36542;51.700;8.846;2023-03-23T01:39:54;4.17;;;2.53;;
50585;SDS011;36542;51.700;8.846;2023-03-23T01:42:25;3.47;;;2.40;;
50585;SDS011;36542;51.700;8.846;2023-03-23T01:47:39;3.13;;;2.37;;
50585;SDS011;36542;51.700;8.846;2023-03-23T01:50:05;5.13;;;2.40;;
50585;SDS011;36542;51.700;8.846;2023-03-23T01:52:31;4.70;;;2.60;;
50585;SDS011;36542;51.700;8.846;2023-03-23T01:54:58;5.03;;;2.70;;
50585;SDS011;36542;51.700;8.846;2023-03-23T01:57:24;3.57;;;2.50;;
50585;SDS011;36542;51.700;8.846;2023-03-23T01:59:55;2.53;;;2.33;;
50585;SDS011;36542;51.700;8.846;2023-03-23T02:02:23;3.50;;;2.57;;
50585;SDS011;36542;51.700;8.846;2023-03-23T02:04:50;6.43;;;2.87;;
50585;SDS011;36542;51.700;8.846;2023-03-23T02:07:17;2.83;;;2.43;;
50585;SDS011;36542;51.700;8.846;2023-03-23T02:09:50;4.97;;;2.90;;
50585;SDS011;36542;51.700;8.846;2023-03-23T02:12:19;4.20;;;2.60;;
50585;SDS011;36542;51.700;8.846;2023-03-23T02:14:45;4.10;;;2.83;;
50585;SDS011;36542;51.700;8.846;2023-03-23T02:17:15;4.10;;;2.87;;
50585;SDS011;36542;51.700;8.846;2023-03-23T02:20:00;3.67;;;3.07;;
50585;SDS011;36542;51.700;8.846;2023-03-23T02:25:35;4.10;;;2.90;;
50585;SDS011;36542;51.700;8.846;2023-03-23T02:36:50;3.83;;;2.50;;
50585;SDS011;36542;51.700;8.846;2023-03-23T02:39:26;5.53;;;2.50;;
50585;SDS011;36542;51.700;8.846;2023-03-23T02:42:09;3.87;;;2.33;;
50585;SDS011;36542;51.700;8.846;2023-03-23T02:44:39;3.47;;;2.60;;
50585;SDS011;36542;51.700;8.846;2023-03-23T02:47:08;3.23;;;2.70;;
50585;SDS011;36542;51.700;8.846;2023-03-23T02:49:39;4.33;;;2.50;;
50585;SDS011;36542;51.700;8.846;2023-03-23T02:52:09;4.17;;;2.73;;
50585;SDS011;36542;51.700;8.846;2023-03-23T02:54:39;5.53;;;2.50;;
50585;SDS011;36542;51.700;8.846;2023-03-23T02:57:07;3.83;;;2.67;;
50585;SDS011;36542;51.700;8.846;2023-03-23T02:59:33;3.97;;;2.43;;
50585;SDS011;36542;51.700;8.846;2023-03-23T03:02:05;2.60;;;2.40;;
50585;SDS011;36542;51.700;8.846;2023-03-23T03:04:35;4.27;;;3.27;;
50585;SDS011;36542;51.700;8.846;2023-03-23T03:15:28;4.50;;;2.57;;
50585;SDS011;36542;51.700;8.846;2023-03-23T03:18:19;3.87;;;2.90;;
50585;SDS011;36542;51.700;8.846;2023-03-23T03:20:50;3.93;;;2.73;;
50585;SDS011;36542;51.700;8.846;2023-03-23T03:23:19;4.30;;;3.03;;
50585;SDS011;36542;51.700;8.846;2023-03-23T03:25:47;4.53;;;3.13;;
50585;SDS011;36542;51.700;8.846;2023-03-23T03:28:15;9.07;;;3.10;;
50585;SDS011;36542;51.700;8.846;2023-03-23T03:30:42;6.03;;;3.53;;
50585;SDS011;36542;51.700;8.846;2023-03-23T03:33:10;4.27;;;3.27;;
50585;SDS011;36542;51.700;8.846;2023-03-23T03:35:36;3.17;;;2.77;;
50585;SDS011;36542;51.700;8.846;2023-03-23T03:38:06;4.83;;;3.03;;
50585;SDS011;36542;51.700;8.846;2023-03-23T03:40:33;4.07;;;3.07;;
50585;SDS011;36542;51.700;8.846;2023-03-23T03:42:58;3.70;;;2.67;;
50585;SDS011;36542;51.700;8.846;2023-03-23T03:45:24;3.43;;;3.00;;
50585;SDS011;36542;51.700;8.846;2023-03-23T03:47:49;3.73;;;3.10;;
50585;SDS011;36542;51.700;8.846;2023-03-23T03:50:15;4.23;;;3.03;;
50585;SDS011;36542;51.700;8.846;2023-03-23T03:52:41;2.93;;;2.60;;
50585;SDS011;36542;51.700;8.846;2023-03-23T03:55:07;3.00;;;2.30;;
50585;SDS011;36542;51.700;8.846;2023-03-23T03:57:34;2.17;;;1.80;;
50585;SDS011;36542;51.700;8.846;2023-03-23T04:00:00;2.87;;;2.43;;
50585;SDS011;36542;51.700;8.846;2023-03-23T04:02:25;3.03;;;2.50;;
50585;SDS011;36542;51.700;8.846;2023-03-23T04:04:51;2.30;;;2.10;;
50585;SDS011;36542;51.700;8.846;2023-03-23T04:07:17;3.43;;;2.40;;
50585;SDS011;36542;51.700;8.846;2023-03-23T04:09:43;2.30;;;2.10;;
50585;SDS011;36542;51.700;8.846;2023-03-23T04:12:11;3.00;;;2.37;;
50585;SDS011;36542;51.700;8.846;2023-03-23T04:14:38;6.37;;;2.67;;
50585;SDS011;36542;51.700;8.846;2023-03-23T04:17:03;3.30;;;2.30;;
50585;SDS011;36542;51.700;8.846;2023-03-23T04:19:29;2.10;;;1.90;;
50585;SDS011;36542;51.700;8.846;2023-03-23T04:21:57;2.10;;;1.90;;
50585;SDS011;36542;51.700;8.846;2023-03-23T04:24:23;2.87;;;2.20;;
50585;SDS011;36542;51.700;8.846;2023-03-23T04:26:49;4.40;;;1.60;;
50585;SDS011;36542;51.700;8.846;2023-03-23T04:29:17;2.63;;;2.00;;
50585;SDS011;36542;51.700;8.846;2023-03-23T04:31:43;2.33;;;2.00;;
50585;SDS011;36542;51.700;8.846;2023-03-23T04:34:10;2.20;;;2.00;;
50585;SDS011;36542;51.700;8.846;2023-03-23T04:36:38;3.80;;;2.07;;
50585;SDS011;36542;51.700;8.846;2023-03-23T04:39:04;3.13;;;2.20;;
50585;SDS011;36542;51.700;8.846;2023-03-23T04:41:31;1.87;;;1.70;;
50585;SDS011;36542;51.700;8.846;2023-03-23T04:43:57;2.03;;;1.83;;
50585;SDS011;36542;51.700;8.846;2023-03-23T04:46:27;3.00;;;2.00;;
50585;SDS011;36542;51.700;8.846;2023-03-23T04:48:56;2.97;;;2.00;;
50585;SDS011;36542;51.700;8.846;2023-03-23T04:51:25;4.13;;;1.83;;
50585;SDS011;36542;51.700;8.846;2023-03-23T04:53:53;3.63;;;2.10;;
50585;SDS011;36542;51.700;8.846;2023-03-23T04:56:19;3.97;;;2.00;;
50585;SDS011;36542;51.700;8.846;2023-03-23T04:58:44;3.70;;;2.00;;
50585;SDS011;36542;51.700;8.846;2023-03-23T05:01:10;2.13;;;1.93;;
50585;SDS011;36542;51.700;8.846;2023-03-23T05:03:40;2.20;;;1.90;;
50585;SDS011;36542;51.700;8.846;2023-03-23T05:06:06;2.53;;;1.60;;
50585;SDS011;36542;51.700;8.846;2023-03-23T05:08:32;2.37;;;1.60;;
50585;SDS011;36542;51.700;8.846;2023-03-23T05:10:58;1.90;;;1.73;;
50585;SDS011;36542;51.700;8.846;2023-03-23T05:13:26;1.77;;;1.67;;
50585;SDS011;36542;51.700;8.846;2023-03-23T05:15:53;2.67;;;2.07;;
50585;SDS011;36542;51.700;8.846;2023-03-23T05:18:20;3.60;;;1.60;;
50585;SDS011;36542;51.700;8.846;2023-03-23T05:20:46;2.03;;;1.60;;
50585;SDS011;36542;51.700;8.846;2023-03-23T05:23:13;2.73;;;1.83;;
50585;SDS011;36542;51.700;8.846;2023-03-23T05:25:39;2.27;;;1.60;;
50585;SDS011;36542;51.700;8.846;2023-03-23T05:28:06;2.20;;;1.80;;
50585;SDS011;36542;51.700;8.846;2023-03-23T05:30:32;1.90;;;1.70;;
50585;SDS011;36542;51.700;8.846;2023-03-23T05:32:58;1.97;;;1.77;;
50585;SDS011;36542;51.700;8.846;2023-03-23T05:35:24;2.87;;;1.90;;
50585;SDS011;36542;51.700;8.846;2023-03-23T05:37:50;2.20;;;2.00;;
50585;SDS011;36542;51.700;8.846;2023-03-23T05:40:18;3.30;;;2.00;;
50585;SDS011;36542;51.700;8.846;2023-03-23T05:42:45;2.30;;;2.00;;
50585;SDS011;36542;51.700;8.846;2023-03-23T05:45:12;4.20;;;2.27;;
50585;SDS011;36542;51.700;8.846;2023-03-23T05:47:38;2.40;;;2.13;;
50585;SDS011;36542;51.700;8.846;2023-03-23T05:50:05;6.50;;;4.90;;
50585;SDS011;36542;51.700;8.846;2023-03-23T05:52:32;5.43;;;4.87;;
50585;SDS011;36542;51.700;8.846;2023-03-23T05:55:00;4.50;;;3.80;;
50585;SDS011;36542;51.700;8.846;2023-03-23T05:57:26;3.43;;;2.93;;
50585;SDS011;36542;51.700;8.846;2023-03-23T05:59:52;10.50;;;6.83;;
50585;SDS011;36542;51.700;8.846;2023-03-23T06:02:18;5.20;;;3.63;;
50585;SDS011;36542;51.700;8.846;2023-03-23T06:04:43;5.40;;;3.90;;
50585;SDS011;36542;51.700;8.846;2023-03-23T06:07:09;2.23;;;1.97;;
50585;SDS011;36542;51.700;8.846;2023-03-23T06:09:38;2.97;;;1.90;;
50585;SDS011;36542;51.700;8.846;2023-03-23T06:12:05;2.20;;;2.00;;
50585;SDS011;36542;51.700;8.846;2023-03-23T06:14:31;2.83;;;2.60;;
50585;SDS011;36542;51.700;8.846;2023-03-23T06:16:57;2.40;;;2.20;;
50585;SDS011;36542;51.700;8.846;2023-03-23T06:19:22;2.13;;;1.93;;
50585;SDS011;36542;51.700;8.846;2023-03-23T06:21:48;4.00;;;3.03;;
50585;SDS011;36542;51.700;8.846;2023-03-23T06:24:13;2.70;;;2.20;;
50585;SDS011;36542;51.700;8.846;2023-03-23T06:26:39;2.53;;;2.00;;
50585;SDS011;36542;51.700;8.846;2023-03-23T06:29:09;4.37;;;2.00;;
50585;SDS011;36542;51.700;8.846;2023-03-23T06:31:38;2.23;;;2.03;;
50585;SDS011;36542;51.700;8.846;2023-03-23T06:34:12;4.03;;;3.00;;
50585;SDS011;36542;51.700;8.846;2023-03-23T06:36:38;3.63;;;2.73;;
50585;SDS011;36542;51.700;8.846;2023-03-23T06:39:04;4.87;;;3.27;;
50585;SDS011;36542;51.700;8.846;2023-03-23T06:41:30;2.73;;;2.43;;
50585;SDS011;36542;51.700;8.846;2023-03-23T06:43:56;2.90;;;2.60;;
50585;SDS011;36542;51.700;8.846;2023-03-23T06:46:22;2.20;;;1.80;;
50585;SDS011;36542;51.700;8.846;2023-03-23T06:48:48;2.23;;;2.03;;
50585;SDS011;36542;51.700;8.846;2023-03-23T06:51:17;2.73;;;2.43;;
50585;SDS011;36542;51.700;8.846;2023-03-23T06:53:43;3.60;;;2.30;;
50585;SDS011;36542;51.700;8.846;2023-03-23T06:56:09;3.20;;;2.30;;
50585;SDS011;36542;51.700;8.846;2023-03-23T06:58:36;2.23;;;2.03;;
50585;SDS011;36542;51.700;8.846;2023-03-23T07:01:02;2.67;;;2.10;;
50585;SDS011;36542;51.700;8.846;2023-03-23T07:03:28;3.13;;;2.37;;
50585;SDS011;36542;51.700;8.846;2023-03-23T07:05:55;3.00;;;1.83;;
50585;SDS011;36542;51.700;8.846;2023-03-23T07:08:21;2.07;;;1.93;;
50585;SDS011;36542;51.700;8.846;2023-03-23T07:10:47;3.87;;;2.10;;
50585;SDS011;36542;51.700;8.846;2023-03-23T07:13:17;2.47;;;1.93;;
50585;SDS011;36542;51.700;8.846;2023-03-23T07:15:43;2.53;;;2.10;;
50585;SDS011;36542;51.700;8.846;2023-03-23T07:18:08;4.70;;;2.00;;
50585;SDS011;36542;51.700;8.846;2023-03-23T07:20:34;2.53;;;1.83;;
50585;SDS011;36542;51.700;8.846;2023-03-23T07:23:00;3.03;;;1.90;;
50585;SDS011;36542;51.700;8.846;2023-03-23T07:25:26;3.47;;;2.10;;
50585;SDS011;36542;51.700;8.846;2023-03-23T07:27:52;3.50;;;2.10;;
50585;SDS011;36542;51.700;8.846;2023-03-23T07:30:18;3.13;;;2.17;;
50585;SDS011;36542;51.700;8.846;2023-03-23T07:32:43;4.20;;;2.13;;
50585;SDS011;36542;51.700;8.846;2023-03-23T07:35:09;3.37;;;2.30;;
50585;SDS011;36542;51.700;8.846;2023-03-23T07:37:35;4.07;;;1.90;;
50585;SDS011;36542;51.700;8.846;2023-03-23T07:40:01;3.97;;;2.50;;
50585;SDS011;36542;51.700;8.846;2023-03-23T07:42:39;2.03;;;1.70;;
50585;SDS011;36542;51.700;8.846;2023-03-23T07:45:06;4.27;;;2.13;;
50585;SDS011;36542;51.700;8.846;2023-03-23T07:47:31;4.13;;;2.27;;
50585;SDS011;36542;51.700;8.846;2023-03-23T07:49:57;3.53;;;2.13;;
50585;SDS011;36542;51.700;8.846;2023-03-23T07:52:22;5.83;;;1.97;;
50585;SDS011;36542;51.700;8.846;2023-03-23T07:54:48;3.03;;;2.10;;
50585;SDS011;36542;51.700;8.846;2023-03-23T07:57:14;4.47;;;2.40;;
50585;SDS011;36542;51.700;8.846;2023-03-23T07:59:40;4.23;;;2.13;;
50585;SDS011;36542;51.700;8.846;2023-03-23T08:02:07;2.63;;;1.70;;
50585;SDS011;36542;51.700;8.846;2023-03-23T08:04:35;3.53;;;2.07;;
50585;SDS011;36542;51.700;8.846;2023-03-23T08:07:02;6.63;;;2.00;;
50585;SDS011;36542;51.700;8.846;2023-03-23T08:09:29;3.87;;;1.97;;
50585;SDS011;36542;51.700;8.846;2023-03-23T08:11:55;4.13;;;2.40;;
50585;SDS011;36542;51.700;8.846;2023-03-23T08:14:20;3.67;;;2.07;;
50585;SDS011;36542;51.700;8.846;2023-03-23T08:16:46;4.10;;;1.87;;
50585;SDS011;36542;51.700;8.846;2023-03-23T08:19:13;6.77;;;2.43;;
50585;SDS011;36542;51.700;8.846;2023-03-23T08:21:39;4.73;;;2.10;;
50585;SDS011;36542;51.700;8.846;2023-03-23T08:24:04;3.87;;;2.20;;
50585;SDS011;36542;51.700;8.846;2023-03-23T08:26:31;5.43;;;2.07;;
50585;SDS011;36542;51.700;8.846;2023-03-23T08:28:56;2.97;;;2.20;;
50585;SDS011;36542;51.700;8.846;2023-03-23T08:31:22;7.57;;;2.20;;
50585;SDS011;36542;51.700;8.846;2023-03-23T08:33:48;6.80;;;2.13;;
50585;SDS011;36542;51.700;8.846;2023-03-23T08:36:14;3.63;;;2.00;;
50585;SDS011;36542;51.700;8.846;2023-03-23T08:38:40;5.77;;;2.50;;
50585;SDS011;36542;51.700;8.846;2023-03-23T08:41:05;4.30;;;2.13;;
50585;SDS011;36542;51.700;8.846;2023-03-23T08:43:32;5.07;;;1.93;;
50585;SDS011;36542;51.700;8.846;2023-03-23T08:45:59;6.70;;;2.00;;
50585;SDS011;36542;51.700;8.846;2023-03-23T08:48:24;5.90;;;2.20;;
50585;SDS011;36542;51.700;8.846;2023-03-23T08:50:50;5.33;;;2.17;;
50585;SDS011;36542;51.700;8.846;2023-03-23T08:53:17;3.53;;;1.83;;
50585;SDS011;36542;51.700;8.846;2023-03-23T08:55:43;4.67;;;2.03;;
50585;SDS011;36542;51.700;8.846;2023-03-23T08:58:09;2.80;;;1.80;;
50585;SDS011;36542;51.700;8.846;2023-03-23T09:00:34;6.23;;;2.67;;
50585;SDS011;36542;51.700;8.846;2023-03-23T09:03:00;2.43;;;1.63;;
50585;SDS011;36542;51.700;8.846;2023-03-23T09:05:27;5.67;;;2.30;;
50585;SDS011;36542;51.700;8.846;2023-03-23T09:07:54;4.80;;;1.90;;
50585;SDS011;36542;51.700;8.846;2023-03-23T09:10:21;4.07;;;1.97;;
50585;SDS011;36542;51.700;8.846;2023-03-23T09:12:47;4.53;;;1.90;;
50585;SDS011;36542;51.700;8.846;2023-03-23T09:15:14;6.67;;;2.10;;
50585;SDS011;36542;51.700;8.846;2023-03-23T09:17:43;5.83;;;1.97;;
50585;SDS011;36542;51.700;8.846;2023-03-23T09:20:11;4.57;;;1.93;;
50585;SDS011;36542;51.700;8.846;2023-03-23T09:22:39;4.87;;;1.80;;
50585;SDS011;36542;51.700;8.846;2023-03-23T09:25:07;4.17;;;1.87;;
50585;SDS011;36542;51.700;8.846;2023-03-23T09:27:34;3.93;;;1.80;;
50585;SDS011;36542;51.700;8.846;2023-03-23T09:30:02;4.00;;;1.80;;
50585;SDS011;36542;51.700;8.846;2023-03-23T09:32:31;3.60;;;1.70;;
50585;SDS011;36542;51.700;8.846;2023-03-23T09:34:58;3.30;;;1.40;;
50585;SDS011;36542;51.700;8.846;2023-03-23T09:37:24;2.43;;;1.30;;
50585;SDS011;36542;51.700;8.846;2023-03-23T09:39:49;1.57;;;1.40;;
50585;SDS011;36542;51.700;8.846;2023-03-23T09:45:02;2.93;;;1.60;;
50585;SDS011;36542;51.700;8.846;2023-03-23T09:47:51;3.77;;;1.87;;
50585;SDS011;36542;51.700;8.846;2023-03-23T09:50:28;3.77;;;1.43;;
50585;SDS011;36542;51.700;8.846;2023-03-23T09:53:09;2.50;;;1.87;;
50585;SDS011;36542;51.700;8.846;2023-03-23T09:55:36;4.57;;;2.13;;
50585;SDS011;36542;51.700;8.846;2023-03-23T09:58:05;4.23;;;1.53;;
50585;SDS011;36542;51.700;8.846;2023-03-23T10:00:42;3.17;;;1.87;;
50585;SDS011;36542;51.700;8.846;2023-03-23T10:03:39;2.90;;;1.60;;
50585;SDS011;36542;51.700;8.846;2023-03-23T10:06:10;3.47;;;2.10;;
50585;SDS011;36542;51.700;8.846;2023-03-23T10:08:41;2.90;;;1.80;;
50585;SDS011;36542;51.700;8.846;2023-03-23T10:11:13;4.53;;;1.80;;
50585;SDS011;36542;51.700;8.846;2023-03-23T10:16:19;2.40;;;1.73;;
50585;SDS011;36542;51.700;8.846;2023-03-23T10:18:50;3.60;;;1.70;;
50585;SDS011;36542;51.700;8.846;2023-03-23T10:21:24;6.93;;;1.80;;
50585;SDS011;36542;51.700;8.846;2023-03-23T10:23:58;4.73;;;1.90;;
50585;SDS011;36542;51.700;8.846;2023-03-23T10:29:23;6.40;;;1.70;;
50585;SDS011;36542;51.700;8.846;2023-03-23T10:31:56;5.43;;;1.90;;
50585;SDS011;36542;51.700;8.846;2023-03-23T10:34:39;4.73;;;1.87;;
50585;SDS011;36542;51.700;8.846;2023-03-23T10:39:40;3.37;;;1.87;;
50585;SDS011;36542;51.700;8.846;2023-03-23T10:42:11;2.27;;;1.60;;
50585;SDS011;36542;51.700;8.846;2023-03-23T10:44:36;4.20;;;1.73;;
50585;SDS011;36542;51.700;8.846;2023-03-23T10:47:04;3.33;;;2.17;;
50585;SDS011;36542;51.700;8.846;2023-03-23T10:49:33;4.93;;;1.90;;
50585;SDS011;36542;51.700;8.846;2023-03-23T10:52:06;5.17;;;2.17;;
50585;SDS011;36542;51.700;8.846;2023-03-23T10:57:38;6.57;;;2.13;;
50585;SDS011;36542;51.700;8.846;2023-03-23T11:00:07;7.60;;;2.43;;
50585;SDS011;36542;51.700;8.846;2023-03-23T11:05:43;7.23;;;2.43;;
50585;SDS011;36542;51.700;8.846;2023-03-23T11:08:16;3.87;;;1.93;;
50585;SDS011;36542;51.700;8.846;2023-03-23T11:10:54;6.87;;;2.10;;
50585;SDS011;36542;51.700;8.846;2023-03-23T11:13:23;6.57;;;1.80;;
50585;SDS011;36542;51.700;8.846;2023-03-23T11:15:56;7.10;;;2.13;;
50585;SDS011;36542;51.700;8.846;2023-03-23T11:18:23;3.07;;;1.70;;
50585;SDS011;36542;51.700;8.846;2023-03-23T11:20:54;4.37;;;1.93;;
50585;SDS011;36542;51.700;8.846;2023-03-23T11:23:28;5.27;;;1.77;;
50585;SDS011;36542;51.700;8.846;2023-03-23T11:28:35;3.37;;;2.40;;
50585;SDS011;36542;51.700;8.846;2023-03-23T11:31:06;6.47;;;2.20;;
50585;SDS011;36542;51.700;8.846;2023-03-23T11:33:42;4.80;;;1.97;;
50585;SDS011;36542;51.700;8.846;2023-03-23T11:36:29;6.27;;;2.00;;
50585;SDS011;36542;51.700;8.846;2023-03-23T11:39:03;4.60;;;2.07;;
50585;SDS011;36542;51.700;8.846;2023-03-23T11:41:57;6.20;;;2.17;;
50585;SDS011;36542;51.700;8.846;2023-03-23T11:44:31;5.67;;;1.83;;
50585;SDS011;36542;51.700;8.846;2023-03-23T11:47:17;5.30;;;1.83;;
50585;SDS011;36542;51.700;8.846;2023-03-23T11:49:55;4.70;;;1.87;;
50585;SDS011;36542;51.700;8.846;2023-03-23T11:52:40;6.30;;;1.90;;
50585;SDS011;36542;51.700;8.846;2023-03-23T11:58:11;6.10;;;2.03;;
50585;SDS011;36542;51.700;8.846;2023-03-23T12:00:42;6.13;;;2.10;;
50585;SDS011;36542;51.700;8.846;2023-03-23T12:03:32;4.23;;;1.67;;
50585;SDS011;36542;51.700;8.846;2023-03-23T12:06:11;6.87;;;2.30;;
50585;SDS011;36542;51.700;8.846;2023-03-23T12:08:47;3.47;;;1.70;;
50585;SDS011;36542;51.700;8.846;2023-03-23T12:11:22;3.23;;;1.87;;
50585;SDS011;36542;51.700;8.846;2023-03-23T12:16:40;5.20;;;2.60;;
50585;SDS011;36542;51.700;8.846;2023-03-23T12:19:34;6.47;;;2.40;;
50585;SDS011;36542;51.700;8.846;2023-03-23T12:22:33;5.40;;;3.20;;
50585;SDS011;36542;51.700;8.846;2023-03-23T12:28:17;4.20;;;2.73;;
50585;SDS011;36542;51.700;8.846;2023-03-23T12:33:43;4.83;;;3.30;;
50585;SDS011;36542;51.700;8.846;2023-03-23T12:38:49;5.20;;;2.80;;
50585;SDS011;36542;51.700;8.846;2023-03-23T12:44:26;4.33;;;2.60;;
50585;SDS011;36542;51.700;8.846;2023-03-23T12:47:04;5.77;;;3.07;;
50585;SDS011;36542;51.700;8.846;2023-03-23T12:49:40;3.53;;;2.60;;
50585;SDS011;36542;51.700;8.846;2023-03-23T12:52:16;3.50;;;2.37;;
50585;SDS011;36542;51.700;8.846;2023-03-23T12:55:05;8.37;;;2.87;;
50585;SDS011;36542;51.700;8.846;2023-03-23T13:00:22;3.10;;;2.80;;
50585;SDS011;36542;51.700;8.846;2023-03-23T13:02:58;3.70;;;2.60;;
50585;SDS011;36542;51.700;8.846;2023-03-23T13:05:39;4.73;;;2.70;;
50585;SDS011;36542;51.700;8.846;2023-03-23T13:08:16;4.73;;;2.47;;
50585;SDS011;36542;51.700;8.846;2023-03-23T13:10:47;7.50;;;3.20;;
50585;SDS011;36542;51.700;8.846;2023-03-23T13:13:17;4.47;;;2.70;;
50585;SDS011;36542;51.700;8.846;2023-03-23T13:15:57;4.97;;;2.80;;
50585;SDS011;36542;51.700;8.846;2023-03-23T13:18:38;3.67;;;3.10;;
50585;SDS011;36542;51.700;8.846;2023-03-23T13:21:19;5.60;;;3.27;;
50585;SDS011;36542;51.700;8.846;2023-03-23T13:24:04;3.63;;;3.33;;
50585;SDS011;36542;51.700;8.846;2023-03-23T13:26:37;8.03;;;4.33;;
50585;SDS011;36542;51.700;8.846;2023-03-23T13:29:06;9.17;;;4.73;;
50585;SDS011;36542;51.700;8.846;2023-03-23T13:31:39;6.47;;;5.50;;
50585;SDS011;36542;51.700;8.846;2023-03-23T13:34:12;8.70;;;4.40;;
50585;SDS011;36542;51.700;8.846;2023-03-23T13:36:52;7.47;;;4.73;;
50585;SDS011;36542;51.700;8.846;2023-03-23T13:39:26;11.73;;;5.87;;
50585;SDS011;36542;51.700;8.846;2023-03-23T13:49:56;6.83;;;4.53;;
50585;SDS011;36542;51.700;8.846;2023-03-23T13:57:51;6.90;;;4.07;;
50585;SDS011;36542;51.700;8.846;2023-03-23T14:00:25;6.37;;;4.07;;
50585;SDS011;36542;51.700;8.846;2023-03-23T14:03:01;4.97;;;4.00;;
50585;SDS011;36542;51.700;8.846;2023-03-23T14:10:38;5.87;;;3.40;;
50585;SDS011;36542;51.700;8.846;2023-03-23T14:13:15;6.83;;;3.97;;
50585;SDS011;36542;51.700;8.846;2023-03-23T14:15:55;5.77;;;3.67;;
50585;SDS011;36542;51.700;8.846;2023-03-23T14:18:23;8.23;;;3.67;;
50585;SDS011;36542;51.700;8.846;2023-03-23T14:20:53;4.97;;;3.50;;
50585;SDS011;36542;51.700;8.846;2023-03-23T14:23:20;5.50;;;3.50;;
50585;SDS011;36542;51.700;8.846;2023-03-23T14:25:58;6.87;;;3.93;;
50585;SDS011;36542;51.700;8.846;2023-03-23T14:28:36;6.90;;;4.37;;
50585;SDS011;36542;51.700;8.846;2023-03-23T14:31:03;5.17;;;4.40;;
50585;SDS011;36542;51.700;8.846;2023-03-23T14:33:30;8.23;;;4.50;;
50585;SDS011;36542;51.700;8.846;2023-03-23T14:35:56;8.93;;;4.63;;
50585;SDS011;36542;51.700;8.846;2023-03-23T14:38:24;6.70;;;4.77;;
50585;SDS011;36542;51.700;8.846;2023-03-23T14:40:59;7.53;;;4.93;;
50585;SDS011;36542;51.700;8.846;2023-03-23T14:43:26;9.13;;;6.73;;
50585;SDS011;36542;51.700;8.846;2023-03-23T14:45:52;11.10;;;7.03;;
50585;SDS011;36542;51.700;8.846;2023-03-23T14:48:20;14.27;;;7.93;;
50585;SDS011;36542;51.700;8.846;2023-03-23T14:50:50;14.87;;;9.87;;
50585;SDS011;36542;51.700;8.846;2023-03-23T14:53:37;9.23;;;6.80;;
50585;SDS011;36542;51.700;8.846;2023-03-23T14:56:16;8.33;;;6.83;;
50585;SDS011;36542;51.700;8.846;2023-03-23T14:58:47;7.53;;;5.83;;
50585;SDS011;36542;51.700;8.846;2023-03-23T15:01:22;6.43;;;5.27;;
50585;SDS011;36542;51.700;8.846;2023-03-23T15:03:53;8.27;;;6.00;;
50585;SDS011;36542;51.700;8.846;2023-03-23T15:06:29;8.30;;;5.27;;
50585;SDS011;36542;51.700;8.846;2023-03-23T15:08:59;9.73;;;7.60;;
50585;SDS011;36542;51.700;8.846;2023-03-23T15:11:28;6.57;;;5.47;;
50585;SDS011;36542;51.700;8.846;2023-03-23T15:13:56;12.07;;;8.97;;
50585;SDS011;36542;51.700;8.846;2023-03-23T15:16:26;12.10;;;7.63;;
50585;SDS011;36542;51.700;8.846;2023-03-23T15:19:00;8.57;;;7.60;;
50585;SDS011;36542;51.700;8.846;2023-03-23T15:21:30;11.70;;;8.17;;
50585;SDS011;36542;51.700;8.846;2023-03-23T15:23:59;8.37;;;7.03;;
50585;SDS011;36542;51.700;8.846;2023-03-23T15:26:31;11.63;;;7.70;;
50585;SDS011;36542;51.700;8.846;2023-03-23T15:31:47;22.27;;;15.20;;
50585;SDS011;36542;51.700;8.846;2023-03-23T15:34:24;18.53;;;10.80;;
50585;SDS011;36542;51.700;8.846;2023-03-23T15:36:58;15.77;;;10.03;;
50585;SDS011;36542;51.700;8.846;2023-03-23T15:39:30;15.03;;;11.40;;
50585;SDS011;36542;51.700;8.846;2023-03-23T15:41:57;20.57;;;14.80;;
50585;SDS011;36542;51.700;8.846;2023-03-23T15:44:28;18.70;;;13.97;;
50585;SDS011;36542;51.700;8.846;2023-03-23T15:47:33;17.30;;;13.87;;
50585;SDS011;36542;51.700;8.846;2023-03-23T15:50:01;15.07;;;12.53;;
50585;SDS011;36542;51.700;8.846;2023-03-23T15:52:29;12.47;;;9.50;;
50585;SDS011;36542;51.700;8.846;2023-03-23T15:54:55;15.77;;;11.07;;
50585;SDS011;36542;51.700;8.846;2023-03-23T15:57:20;16.80;;;9.90;;
50585;SDS011;36542;51.700;8.846;2023-03-23T15:59:46;15.90;;;9.30;;
50585;SDS011;36542;51.700;8.846;2023-03-23T16:02:20;12.80;;;8.63;;
50585;SDS011;36542;51.700;8.846;2023-03-23T16:04:47;13.17;;;9.67;;
50585;SDS011;36542;51.700;8.846;2023-03-23T16:07:14;14.70;;;10.77;;
50585;SDS011;36542;51.700;8.846;2023-03-23T16:09:41;14.33;;;10.20;;
50585;SDS011;36542;51.700;8.846;2023-03-23T16:12:10;13.77;;;11.10;;
50585;SDS011;36542;51.700;8.846;2023-03-23T16:14:40;13.97;;;10.53;;
50585;SDS011;36542;51.700;8.846;2023-03-23T16:17:05;8.97;;;7.30;;
50585;SDS011;36542;51.700;8.846;2023-03-23T16:19:35;8.83;;;6.87;;
50585;SDS011;36542;51.700;8.846;2023-03-23T16:22:00;8.83;;;6.70;;
50585;SDS011;36542;51.700;8.846;2023-03-23T16:24:26;8.20;;;5.47;;